Vliegveldwaarnemingen Nederland - (AUTO) METAR

Luchtvaartmeteorologische informatie voor operationeel gebruik en vluchtvoorbereiding is beschikbaar op www.luchtvaartmeteo.nl.

ZCZC
SA190125 EHFS     VLISSINGEN AWS   NLD   8 m.
METAR EHFS 190125Z AUTO 18011KT 9999 NSC 03/00 Q1021 W///H///=

ZCZC
SA190155 EHKD     DE KOOY/DE KOOY   NLD   1 m.
METAR EHKD 190155Z AUTO 17007KT 6000 BR FEW040 SCT044 OVC072 01/M00
Q1020 WHT=

ZCZC
SA190155 EHFD     F3-FB-1   NLD   50 m.
METAR EHFD 190155Z AUTO 20014KT 6000 NSC 05/04 Q1018 W///H///=

ZCZC
SA190155 EHAM     AMSTERDAM/SCHIPHOL   NLD   -3 m.
METAR EHAM 190155Z 16005KT 7000 NSC 01/M01 Q1021 NOSIG=

ZCZC
SA190155 EHVL     VLIELAND   NLD   10 m.
METAR EHVL 190155Z AUTO 19011KT 6000 BR OVC120 03/01 Q1020 WHT=

ZCZC
SA190155 EHJR     K13-A   NLD   37 m.
METAR EHJR 190155Z AUTO 21015KT //// // ///////// 06/05 Q1019 RE//
W05/H7=

ZCZC
SA190155 EHLW     LEEUWARDEN/LEEUWARDEN   NLD   1 m.
METAR EHLW 190155Z AUTO 17006KT 150V210 3900 BR FEW028 SCT035 BKN046
01/M00 Q1020 GRN=

ZCZC
SA190155 EHDL     ARNHEM/DEELEN   NLD   48 m.
METAR EHDL 190155Z AUTO 14003KT 100V170 6000 BR OVC130 M01/M02 Q1021 WHT=

ZCZC
SA190155 EHGG     GRONINGEN/EELDE   NLD   5 m.
METAR EHGG 190155Z AUTO 20005KT 8000 NSC 01/M01 Q1021=

ZCZC
SA190155 EHSC     LICHTEILAND GOEREE   NLD   22 m.
METAR EHSC 190155Z AUTO 20016KT 9999 ///////// 04/01 Q1020 W06/H7=

ZCZC
SA190155 EHSA     EURO PLATFORM   NLD   19 m.
METAR EHSA 190155Z AUTO 18018KT 9999 ///////// 05/02 Q1020 W06/H9=

ZCZC
SA190155 EHWO     WOENSDRECHT/WOENSDRECHT   NLD   19 m.
METAR EHWO 190155Z AUTO 17004KT 130V200 9999 OVC140 02/M02 Q1021 BLU=

ZCZC
SA190155 EHRD     ROTTERDAM/THE HAGUE AIRPORT   NLD   -5 m.
METAR EHRD 190155Z AUTO 18008KT 9999 NSC 02/M01 Q1021 NOSIG=

ZCZC
SA190155 EHGR     GILZE-RIJEN/GILZE-RIJEN   NLD   14 m.
METAR EHGR 190155Z AUTO 17004KT 8000 BR OVC130 M01/M03 Q1021 BLU=

ZCZC
SA190155 EHEH     EINDHOVEN/EINDHOVEN   NLD   22 m.
METAR EHEH 190155Z AUTO 15005KT 9999 OVC210 M02/M04 Q1022 BLU=

ZCZC
SA190155 EHVK     VOLKEL/VOLKEL   NLD   21 m.
METAR EHVK 190155Z AUTO 18003KT 9000 BR OVC150 M02/M03 Q1022 BLU=

ZCZC
SA190155 EHBK     MAASTRICHT/MAASTRICHT-AACHEN   NLD   114 m.
METAR EHBK 190155Z AUTO 14004KT 9000 NSC M01/M03 Q1021=

ZCZC
SA190155 EHFZ     F16-A   NLD   43 m.
METAR EHFZ 190155Z AUTO 20014KT 4300 BR SCT032 BKN037 06/04 Q1018
W///H///=

ZCZC
SA190155 EHKV     K14-FA-1C   NLD   41 m.
METAR EHKV 190155Z AUTO 19016KT 8000 FEW025 SCT032 BKN036 07/05 Q1019
W///H///=

ZCZC
SA190155 EHMG     L9-FF-1   NLD   44 m.
METAR EHMG 190155Z AUTO 21015KT 7000 BKN038 BKN042 05/03 Q1019
W///H///=

ZCZC
SA190155 EHMA     AWG-1   NLD   40 m.
METAR EHMA 190155Z AUTO 19017KT 7000 FEW027 02/00 Q1020 W///H///=

ZCZC
SA190155 EHDV     D15-FA-1   NLD   42 m.
METAR EHDV 190155Z AUTO 18012KT 9999 -DZ FEW035/// SCT049/// 06/04
Q1018 W///H///=

ZCZC
SA190155 EHAK     A12-CPP   NLD   48 m.
METAR EHAK 190155Z AUTO 21016KT 9000 FEW034/// SCT049/// 06/04 Q1017
W///H///=

ZCZC
SA190155 EHQE     HOORN-A   NLD   50 m.
METAR EHQE 190155Z AUTO 17015KT 9999 SCT037 BKN042 06/03 Q1019
W///H///=

ZCZC
SA190155 EHJA     J6-A   NLD   45 m.
METAR EHJA 190155Z AUTO 18012KT 8000 FEW027/// SCT041/// BKN048///
06/04 Q1018 W///H///=

ZCZC
SA190155 EHPG     P11-B   NLD   41 m.
METAR EHPG 190155Z AUTO 19017KT 130V250 9999 NSC 06/03 Q1019
W///H///=

ZCZC
SA190155 EHHW     BUITENGAATS/BG-OHVS2      42 m.
METAR EHHW 190155Z AUTO 22010KT 6000 ///////// 05/03 Q1020 W///H///=

19/02/2018 03.00 uur LT